sensor_id;sensor_type;location;lat;lon;timestamp;P1;durP1;ratioP1;P2;durP2;ratioP2
58685;SDS011;44465;53.206;-6.106;2023-04-26T00:01:28;4.82;;;3.05;;
58685;SDS011;44465;53.206;-6.106;2023-04-26T00:03:54;7.03;;;2.85;;
58685;SDS011;44465;53.206;-6.106;2023-04-26T00:06:20;7.70;;;2.90;;
58685;SDS011;44465;53.206;-6.106;2023-04-26T00:08:45;7.47;;;2.78;;
58685;SDS011;44465;53.206;-6.106;2023-04-26T00:11:11;7.50;;;3.38;;
58685;SDS011;44465;53.206;-6.106;2023-04-26T00:13:36;7.03;;;3.10;;
58685;SDS011;44465;53.206;-6.106;2023-04-26T00:16:03;5.50;;;2.90;;
58685;SDS011;44465;53.206;-6.106;2023-04-26T00:18:29;7.43;;;2.95;;
58685;SDS011;44465;53.206;-6.106;2023-04-26T00:20:55;7.95;;;2.67;;
58685;SDS011;44465;53.206;-6.106;2023-04-26T00:23:21;4.90;;;2.45;;
58685;SDS011;44465;53.206;-6.106;2023-04-26T00:25:47;4.95;;;2.50;;
58685;SDS011;44465;53.206;-6.106;2023-04-26T00:28:12;5.25;;;2.90;;
58685;SDS011;44465;53.206;-6.106;2023-04-26T00:30:38;8.30;;;2.88;;
58685;SDS011;44465;53.206;-6.106;2023-04-26T00:33:07;4.13;;;2.58;;
58685;SDS011;44465;53.206;-6.106;2023-04-26T00:35:33;5.25;;;2.50;;
58685;SDS011;44465;53.206;-6.106;2023-04-26T00:37:58;3.80;;;2.42;;
58685;SDS011;44465;53.206;-6.106;2023-04-26T00:40:24;4.43;;;2.50;;
58685;SDS011;44465;53.206;-6.106;2023-04-26T00:42:55;6.22;;;2.60;;
58685;SDS011;44465;53.206;-6.106;2023-04-26T00:45:23;5.38;;;2.35;;
58685;SDS011;44465;53.206;-6.106;2023-04-26T00:47:49;3.88;;;2.17;;
58685;SDS011;44465;53.206;-6.106;2023-04-26T00:50:15;7.13;;;2.47;;
58685;SDS011;44465;53.206;-6.106;2023-04-26T00:52:41;2.15;;;1.90;;
58685;SDS011;44465;53.206;-6.106;2023-04-26T00:55:07;4.45;;;2.20;;
58685;SDS011;44465;53.206;-6.106;2023-04-26T00:57:33;7.57;;;2.20;;
58685;SDS011;44465;53.206;-6.106;2023-04-26T00:59:58;5.35;;;2.30;;
58685;SDS011;44465;53.206;-6.106;2023-04-26T01:02:24;4.03;;;2.33;;
58685;SDS011;44465;53.206;-6.106;2023-04-26T01:04:50;4.75;;;1.88;;
58685;SDS011;44465;53.206;-6.106;2023-04-26T01:07:16;3.35;;;1.77;;
58685;SDS011;44465;53.206;-6.106;2023-04-26T01:09:41;5.40;;;2.17;;
58685;SDS011;44465;53.206;-6.106;2023-04-26T01:12:08;5.10;;;2.17;;
58685;SDS011;44465;53.206;-6.106;2023-04-26T01:14:35;7.50;;;2.58;;
58685;SDS011;44465;53.206;-6.106;2023-04-26T01:17:02;4.05;;;2.35;;
58685;SDS011;44465;53.206;-6.106;2023-04-26T01:19:27;2.17;;;1.90;;
58685;SDS011;44465;53.206;-6.106;2023-04-26T01:21:53;3.38;;;1.80;;
58685;SDS011;44465;53.206;-6.106;2023-04-26T01:24:19;4.00;;;2.13;;
58685;SDS011;44465;53.206;-6.106;2023-04-26T01:26:45;3.00;;;1.67;;
58685;SDS011;44465;53.206;-6.106;2023-04-26T01:29:16;2.42;;;2.10;;
58685;SDS011;44465;53.206;-6.106;2023-04-26T01:31:43;2.67;;;1.95;;
58685;SDS011;44465;53.206;-6.106;2023-04-26T01:34:09;2.70;;;1.92;;
58685;SDS011;44465;53.206;-6.106;2023-04-26T01:36:34;4.15;;;2.10;;
58685;SDS011;44465;53.206;-6.106;2023-04-26T01:39:00;3.90;;;1.90;;
58685;SDS011;44465;53.206;-6.106;2023-04-26T01:41:25;2.38;;;2.15;;
58685;SDS011;44465;53.206;-6.106;2023-04-26T01:43:51;2.88;;;1.92;;
58685;SDS011;44465;53.206;-6.106;2023-04-26T01:46:17;3.97;;;2.03;;
58685;SDS011;44465;53.206;-6.106;2023-04-26T01:48:43;2.30;;;1.70;;
58685;SDS011;44465;53.206;-6.106;2023-04-26T01:51:10;2.58;;;1.83;;
58685;SDS011;44465;53.206;-6.106;2023-04-26T01:53:35;2.42;;;1.70;;
58685;SDS011;44465;53.206;-6.106;2023-04-26T01:56:03;5.43;;;1.63;;
58685;SDS011;44465;53.206;-6.106;2023-04-26T01:58:29;4.00;;;1.77;;
58685;SDS011;44465;53.206;-6.106;2023-04-26T02:00:56;2.90;;;2.00;;
58685;SDS011;44465;53.206;-6.106;2023-04-26T02:03:28;3.40;;;1.70;;
58685;SDS011;44465;53.206;-6.106;2023-04-26T02:05:54;2.08;;;1.52;;
58685;SDS011;44465;53.206;-6.106;2023-04-26T02:08:20;3.10;;;1.27;;
58685;SDS011;44465;53.206;-6.106;2023-04-26T02:10:45;1.55;;;1.45;;
58685;SDS011;44465;53.206;-6.106;2023-04-26T02:13:11;3.05;;;1.70;;
58685;SDS011;44465;53.206;-6.106;2023-04-26T02:15:36;2.67;;;1.55;;
58685;SDS011;44465;53.206;-6.106;2023-04-26T02:18:02;2.53;;;1.50;;
58685;SDS011;44465;53.206;-6.106;2023-04-26T02:20:27;1.85;;;1.65;;
58685;SDS011;44465;53.206;-6.106;2023-04-26T02:22:53;2.90;;;1.80;;
58685;SDS011;44465;53.206;-6.106;2023-04-26T02:25:18;2.30;;;1.45;;
58685;SDS011;44465;53.206;-6.106;2023-04-26T02:27:44;1.35;;;1.25;;
58685;SDS011;44465;53.206;-6.106;2023-04-26T02:30:09;2.45;;;1.35;;
58685;SDS011;44465;53.206;-6.106;2023-04-26T02:32:35;1.73;;;1.40;;
58685;SDS011;44465;53.206;-6.106;2023-04-26T02:35:00;2.83;;;1.75;;
58685;SDS011;44465;53.206;-6.106;2023-04-26T02:37:26;2.55;;;1.55;;
58685;SDS011;44465;53.206;-6.106;2023-04-26T02:39:52;1.65;;;1.55;;
58685;SDS011;44465;53.206;-6.106;2023-04-26T02:42:17;2.17;;;1.65;;
58685;SDS011;44465;53.206;-6.106;2023-04-26T02:44:43;1.60;;;1.50;;
58685;SDS011;44465;53.206;-6.106;2023-04-26T02:47:08;1.38;;;1.27;;
58685;SDS011;44465;53.206;-6.106;2023-04-26T02:49:34;2.38;;;1.48;;
58685;SDS011;44465;53.206;-6.106;2023-04-26T02:52:00;3.60;;;1.80;;
58685;SDS011;44465;53.206;-6.106;2023-04-26T02:54:26;3.85;;;1.98;;
58685;SDS011;44465;53.206;-6.106;2023-04-26T02:56:52;1.85;;;1.40;;
58685;SDS011;44465;53.206;-6.106;2023-04-26T02:59:19;1.55;;;1.30;;
58685;SDS011;44465;53.206;-6.106;2023-04-26T03:01:46;2.08;;;1.40;;
58685;SDS011;44465;53.206;-6.106;2023-04-26T03:04:11;2.58;;;1.42;;
58685;SDS011;44465;53.206;-6.106;2023-04-26T03:06:37;1.92;;;1.42;;
58685;SDS011;44465;53.206;-6.106;2023-04-26T03:09:03;2.00;;;1.40;;
58685;SDS011;44465;53.206;-6.106;2023-04-26T03:11:30;1.53;;;1.30;;
58685;SDS011;44465;53.206;-6.106;2023-04-26T03:13:56;1.48;;;1.20;;
58685;SDS011;44465;53.206;-6.106;2023-04-26T03:16:21;2.63;;;1.67;;
58685;SDS011;44465;53.206;-6.106;2023-04-26T03:18:48;1.80;;;1.70;;
58685;SDS011;44465;53.206;-6.106;2023-04-26T03:21:13;1.50;;;1.40;;
58685;SDS011;44465;53.206;-6.106;2023-04-26T03:23:39;2.15;;;1.55;;
58685;SDS011;44465;53.206;-6.106;2023-04-26T03:26:05;2.75;;;1.20;;
58685;SDS011;44465;53.206;-6.106;2023-04-26T03:28:30;2.13;;;1.50;;
58685;SDS011;44465;53.206;-6.106;2023-04-26T03:30:56;1.45;;;1.23;;
58685;SDS011;44465;53.206;-6.106;2023-04-26T03:33:22;1.98;;;1.40;;
58685;SDS011;44465;53.206;-6.106;2023-04-26T03:35:48;1.98;;;1.50;;
58685;SDS011;44465;53.206;-6.106;2023-04-26T03:38:13;1.45;;;1.35;;
58685;SDS011;44465;53.206;-6.106;2023-04-26T03:40:39;1.70;;;1.15;;
58685;SDS011;44465;53.206;-6.106;2023-04-26T03:43:04;1.40;;;1.30;;
58685;SDS011;44465;53.206;-6.106;2023-04-26T03:45:30;1.45;;;1.35;;
58685;SDS011;44465;53.206;-6.106;2023-04-26T03:47:55;1.90;;;1.55;;
58685;SDS011;44465;53.206;-6.106;2023-04-26T03:50:21;1.20;;;1.10;;
58685;SDS011;44465;53.206;-6.106;2023-04-26T03:52:46;1.38;;;1.15;;
58685;SDS011;44465;53.206;-6.106;2023-04-26T03:55:12;2.90;;;1.60;;
58685;SDS011;44465;53.206;-6.106;2023-04-26T03:57:38;1.55;;;1.30;;
58685;SDS011;44465;53.206;-6.106;2023-04-26T04:00:04;1.63;;;1.30;;
58685;SDS011;44465;53.206;-6.106;2023-04-26T04:02:40;2.05;;;1.15;;
58685;SDS011;44465;53.206;-6.106;2023-04-26T04:05:07;1.67;;;1.30;;
58685;SDS011;44465;53.206;-6.106;2023-04-26T04:07:33;1.65;;;1.20;;
58685;SDS011;44465;53.206;-6.106;2023-04-26T04:09:59;1.27;;;1.17;;
58685;SDS011;44465;53.206;-6.106;2023-04-26T04:12:25;1.63;;;1.27;;
58685;SDS011;44465;53.206;-6.106;2023-04-26T04:14:51;2.97;;;1.13;;
58685;SDS011;44465;53.206;-6.106;2023-04-26T04:17:20;2.47;;;1.20;;
58685;SDS011;44465;53.206;-6.106;2023-04-26T04:19:45;1.17;;;1.13;;
58685;SDS011;44465;53.206;-6.106;2023-04-26T04:22:11;1.17;;;1.10;;
58685;SDS011;44465;53.206;-6.106;2023-04-26T04:24:37;1.88;;;1.17;;
58685;SDS011;44465;53.206;-6.106;2023-04-26T04:27:03;1.10;;;1.10;;
58685;SDS011;44465;53.206;-6.106;2023-04-26T04:29:28;1.50;;;1.40;;
58685;SDS011;44465;53.206;-6.106;2023-04-26T04:31:54;2.60;;;1.13;;
58685;SDS011;44465;53.206;-6.106;2023-04-26T04:34:21;1.42;;;1.25;;
58685;SDS011;44465;53.206;-6.106;2023-04-26T04:36:48;1.20;;;1.10;;
58685;SDS011;44465;53.206;-6.106;2023-04-26T04:39:14;2.05;;;1.33;;
58685;SDS011;44465;53.206;-6.106;2023-04-26T04:41:42;1.60;;;1.35;;
58685;SDS011;44465;53.206;-6.106;2023-04-26T04:44:16;1.58;;;1.38;;
58685;SDS011;44465;53.206;-6.106;2023-04-26T04:46:42;2.15;;;1.00;;
58685;SDS011;44465;53.206;-6.106;2023-04-26T04:49:09;1.27;;;1.17;;
58685;SDS011;44465;53.206;-6.106;2023-04-26T04:51:36;1.17;;;0.98;;
58685;SDS011;44465;53.206;-6.106;2023-04-26T04:54:12;1.33;;;1.00;;
58685;SDS011;44465;53.206;-6.106;2023-04-26T04:56:39;1.13;;;1.10;;
58685;SDS011;44465;53.206;-6.106;2023-04-26T04:59:04;1.45;;;1.20;;
58685;SDS011;44465;53.206;-6.106;2023-04-26T05:01:30;2.05;;;1.23;;
58685;SDS011;44465;53.206;-6.106;2023-04-26T05:03:58;1.42;;;1.10;;
58685;SDS011;44465;53.206;-6.106;2023-04-26T05:06:26;0.95;;;0.95;;
58685;SDS011;44465;53.206;-6.106;2023-04-26T05:08:53;1.20;;;0.90;;
58685;SDS011;44465;53.206;-6.106;2023-04-26T05:11:18;1.30;;;1.20;;
58685;SDS011;44465;53.206;-6.106;2023-04-26T05:13:45;1.30;;;1.20;;
58685;SDS011;44465;53.206;-6.106;2023-04-26T05:16:11;1.02;;;0.90;;
58685;SDS011;44465;53.206;-6.106;2023-04-26T05:18:37;1.83;;;1.10;;
58685;SDS011;44465;53.206;-6.106;2023-04-26T05:21:03;1.90;;;1.20;;
58685;SDS011;44465;53.206;-6.106;2023-04-26T05:23:28;1.63;;;1.15;;
58685;SDS011;44465;53.206;-6.106;2023-04-26T05:25:54;1.70;;;1.13;;
58685;SDS011;44465;53.206;-6.106;2023-04-26T05:28:43;1.67;;;1.25;;
58685;SDS011;44465;53.206;-6.106;2023-04-26T05:31:21;1.17;;;1.05;;
58685;SDS011;44465;53.206;-6.106;2023-04-26T05:34:16;1.13;;;1.02;;
58685;SDS011;44465;53.206;-6.106;2023-04-26T05:36:45;2.15;;;1.38;;
58685;SDS011;44465;53.206;-6.106;2023-04-26T05:39:11;1.42;;;1.33;;
58685;SDS011;44465;53.206;-6.106;2023-04-26T05:41:36;0.88;;;0.88;;
58685;SDS011;44465;53.206;-6.106;2023-04-26T05:44:02;1.30;;;1.10;;
58685;SDS011;44465;53.206;-6.106;2023-04-26T05:46:28;1.38;;;1.00;;
58685;SDS011;44465;53.206;-6.106;2023-04-26T05:48:53;0.90;;;0.90;;
58685;SDS011;44465;53.206;-6.106;2023-04-26T05:51:19;1.50;;;1.40;;
58685;SDS011;44465;53.206;-6.106;2023-04-26T05:53:45;1.35;;;1.10;;
58685;SDS011;44465;53.206;-6.106;2023-04-26T05:56:12;1.10;;;0.90;;
58685;SDS011;44465;53.206;-6.106;2023-04-26T05:58:38;3.08;;;1.42;;
58685;SDS011;44465;53.206;-6.106;2023-04-26T06:01:03;1.77;;;1.33;;
58685;SDS011;44465;53.206;-6.106;2023-04-26T06:03:29;1.50;;;1.40;;
58685;SDS011;44465;53.206;-6.106;2023-04-26T06:05:55;1.35;;;0.95;;
58685;SDS011;44465;53.206;-6.106;2023-04-26T06:08:21;1.95;;;1.10;;
58685;SDS011;44465;53.206;-6.106;2023-04-26T06:10:48;1.38;;;1.00;;
58685;SDS011;44465;53.206;-6.106;2023-04-26T06:13:13;1.42;;;1.10;;
58685;SDS011;44465;53.206;-6.106;2023-04-26T06:15:39;2.13;;;1.08;;
58685;SDS011;44465;53.206;-6.106;2023-04-26T06:18:04;1.05;;;1.00;;
58685;SDS011;44465;53.206;-6.106;2023-04-26T06:20:31;2.08;;;1.20;;
58685;SDS011;44465;53.206;-6.106;2023-04-26T06:22:56;1.50;;;0.82;;
58685;SDS011;44465;53.206;-6.106;2023-04-26T06:25:22;1.15;;;1.15;;
58685;SDS011;44465;53.206;-6.106;2023-04-26T06:27:48;1.30;;;1.20;;
58685;SDS011;44465;53.206;-6.106;2023-04-26T06:30:13;1.20;;;1.10;;
58685;SDS011;44465;53.206;-6.106;2023-04-26T06:32:42;1.20;;;1.10;;
58685;SDS011;44465;53.206;-6.106;2023-04-26T06:35:08;2.60;;;1.30;;
58685;SDS011;44465;53.206;-6.106;2023-04-26T06:37:35;3.15;;;1.20;;
58685;SDS011;44465;53.206;-6.106;2023-04-26T06:40:01;0.93;;;0.90;;
58685;SDS011;44465;53.206;-6.106;2023-04-26T06:42:28;1.45;;;1.10;;
58685;SDS011;44465;53.206;-6.106;2023-04-26T06:45:29;1.00;;;1.00;;
58685;SDS011;44465;53.206;-6.106;2023-04-26T06:47:56;1.55;;;0.95;;
58685;SDS011;44465;53.206;-6.106;2023-04-26T06:50:23;1.52;;;0.80;;
58685;SDS011;44465;53.206;-6.106;2023-04-26T06:52:48;2.13;;;1.00;;
58685;SDS011;44465;53.206;-6.106;2023-04-26T06:55:14;0.90;;;0.85;;
58685;SDS011;44465;53.206;-6.106;2023-04-26T06:57:39;1.85;;;1.23;;
58685;SDS011;44465;53.206;-6.106;2023-04-26T07:00:05;1.48;;;1.17;;
58685;SDS011;44465;53.206;-6.106;2023-04-26T07:02:31;1.08;;;0.90;;
58685;SDS011;44465;53.206;-6.106;2023-04-26T07:04:56;4.35;;;1.30;;
58685;SDS011;44465;53.206;-6.106;2023-04-26T07:07:22;2.53;;;1.42;;
58685;SDS011;44465;53.206;-6.106;2023-04-26T07:09:47;4.20;;;1.40;;
58685;SDS011;44465;53.206;-6.106;2023-04-26T07:12:13;4.20;;;1.50;;
58685;SDS011;44465;53.206;-6.106;2023-04-26T07:14:39;6.10;;;1.50;;
58685;SDS011;44465;53.206;-6.106;2023-04-26T07:17:08;16.13;;;2.38;;
58685;SDS011;44465;53.206;-6.106;2023-04-26T07:19:34;23.77;;;4.05;;
58685;SDS011;44465;53.206;-6.106;2023-04-26T07:22:00;29.77;;;5.38;;
58685;SDS011;44465;53.206;-6.106;2023-04-26T07:24:26;22.77;;;4.05;;
58685;SDS011;44465;53.206;-6.106;2023-04-26T07:26:51;47.85;;;7.50;;
58685;SDS011;44465;53.206;-6.106;2023-04-26T07:29:16;41.28;;;5.20;;
58685;SDS011;44465;53.206;-6.106;2023-04-26T07:31:43;36.72;;;4.30;;
58685;SDS011;44465;53.206;-6.106;2023-04-26T07:34:09;40.85;;;5.80;;
58685;SDS011;44465;53.206;-6.106;2023-04-26T07:36:34;39.17;;;5.20;;
58685;SDS011;44465;53.206;-6.106;2023-04-26T07:39:00;55.58;;;7.60;;
58685;SDS011;44465;53.206;-6.106;2023-04-26T07:41:25;32.45;;;4.85;;
58685;SDS011;44465;53.206;-6.106;2023-04-26T07:43:51;43.60;;;6.45;;
58685;SDS011;44465;53.206;-6.106;2023-04-26T07:46:16;36.22;;;5.55;;
58685;SDS011;44465;53.206;-6.106;2023-04-26T07:48:42;37.50;;;5.82;;
58685;SDS011;44465;53.206;-6.106;2023-04-26T07:51:11;30.20;;;4.90;;
58685;SDS011;44465;53.206;-6.106;2023-04-26T07:53:37;39.03;;;5.60;;
58685;SDS011;44465;53.206;-6.106;2023-04-26T07:56:04;34.30;;;4.82;;
58685;SDS011;44465;53.206;-6.106;2023-04-26T08:00:57;36.92;;;5.10;;
58685;SDS011;44465;53.206;-6.106;2023-04-26T08:03:23;43.85;;;7.13;;
58685;SDS011;44465;53.206;-6.106;2023-04-26T08:05:49;66.25;;;9.23;;
58685;SDS011;44465;53.206;-6.106;2023-04-26T08:08:14;30.65;;;4.50;;
58685;SDS011;44465;53.206;-6.106;2023-04-26T08:10:40;27.13;;;4.80;;
58685;SDS011;44465;53.206;-6.106;2023-04-26T08:13:05;25.77;;;4.60;;
58685;SDS011;44465;53.206;-6.106;2023-04-26T08:15:31;34.75;;;4.78;;
58685;SDS011;44465;53.206;-6.106;2023-04-26T08:17:57;19.27;;;3.75;;
58685;SDS011;44465;53.206;-6.106;2023-04-26T08:20:22;26.85;;;4.35;;
58685;SDS011;44465;53.206;-6.106;2023-04-26T08:22:48;23.77;;;4.30;;
58685;SDS011;44465;53.206;-6.106;2023-04-26T08:25:14;16.50;;;3.00;;
58685;SDS011;44465;53.206;-6.106;2023-04-26T08:27:39;20.05;;;3.50;;
58685;SDS011;44465;53.206;-6.106;2023-04-26T08:30:05;11.73;;;2.88;;
58685;SDS011;44465;53.206;-6.106;2023-04-26T08:32:31;11.40;;;3.90;;
58685;SDS011;44465;53.206;-6.106;2023-04-26T08:37:24;13.70;;;3.63;;
58685;SDS011;44465;53.206;-6.106;2023-04-26T08:39:50;9.73;;;2.65;;
58685;SDS011;44465;53.206;-6.106;2023-04-26T08:42:16;15.18;;;3.40;;
58685;SDS011;44465;53.206;-6.106;2023-04-26T08:44:42;33.45;;;4.05;;
58685;SDS011;44465;53.206;-6.106;2023-04-26T08:49:55;16.70;;;3.25;;
58685;SDS011;44465;53.206;-6.106;2023-04-26T08:52:26;34.22;;;4.28;;
58685;SDS011;44465;53.206;-6.106;2023-04-26T08:54:53;41.20;;;4.97;;
58685;SDS011;44465;53.206;-6.106;2023-04-26T08:57:20;28.60;;;4.50;;
58685;SDS011;44465;53.206;-6.106;2023-04-26T08:59:47;19.38;;;3.90;;
58685;SDS011;44465;53.206;-6.106;2023-04-26T09:02:18;18.52;;;3.40;;
58685;SDS011;44465;53.206;-6.106;2023-04-26T09:04:45;28.67;;;4.65;;
58685;SDS011;44465;53.206;-6.106;2023-04-26T09:07:13;35.42;;;4.75;;
58685;SDS011;44465;53.206;-6.106;2023-04-26T09:09:49;34.35;;;5.45;;
58685;SDS011;44465;53.206;-6.106;2023-04-26T09:12:18;32.55;;;4.07;;
58685;SDS011;44465;53.206;-6.106;2023-04-26T09:14:45;33.88;;;5.82;;
58685;SDS011;44465;53.206;-6.106;2023-04-26T09:17:30;21.52;;;3.40;;
58685;SDS011;44465;53.206;-6.106;2023-04-26T09:23:04;26.55;;;5.13;;
58685;SDS011;44465;53.206;-6.106;2023-04-26T09:25:32;37.35;;;4.68;;
58685;SDS011;44465;53.206;-6.106;2023-04-26T09:27:58;20.67;;;4.05;;
58685;SDS011;44465;53.206;-6.106;2023-04-26T09:30:25;24.93;;;4.53;;
58685;SDS011;44465;53.206;-6.106;2023-04-26T09:32:52;23.98;;;4.38;;
58685;SDS011;44465;53.206;-6.106;2023-04-26T09:37:53;24.90;;;4.00;;
58685;SDS011;44465;53.206;-6.106;2023-04-26T09:40:32;17.02;;;3.88;;
58685;SDS011;44465;53.206;-6.106;2023-04-26T09:48:21;30.00;;;4.70;;
58685;SDS011;44465;53.206;-6.106;2023-04-26T09:50:51;35.72;;;5.97;;
58685;SDS011;44465;53.206;-6.106;2023-04-26T09:53:28;28.95;;;5.25;;
58685;SDS011;44465;53.206;-6.106;2023-04-26T09:55:55;28.52;;;3.95;;
58685;SDS011;44465;53.206;-6.106;2023-04-26T09:58:21;23.00;;;4.22;;
58685;SDS011;44465;53.206;-6.106;2023-04-26T10:00:49;12.27;;;3.60;;
58685;SDS011;44465;53.206;-6.106;2023-04-26T10:03:17;9.35;;;2.50;;
58685;SDS011;44465;53.206;-6.106;2023-04-26T10:05:43;25.05;;;4.80;;
58685;SDS011;44465;53.206;-6.106;2023-04-26T10:08:10;28.33;;;4.57;;
58685;SDS011;44465;53.206;-6.106;2023-04-26T10:10:35;35.47;;;5.68;;
58685;SDS011;44465;53.206;-6.106;2023-04-26T10:13:02;30.33;;;4.93;;
58685;SDS011;44465;53.206;-6.106;2023-04-26T10:15:30;38.78;;;5.22;;
58685;SDS011;44465;53.206;-6.106;2023-04-26T10:17:56;33.97;;;5.53;;
58685;SDS011;44465;53.206;-6.106;2023-04-26T10:20:21;26.75;;;5.53;;
58685;SDS011;44465;53.206;-6.106;2023-04-26T10:22:51;27.83;;;4.90;;
58685;SDS011;44465;53.206;-6.106;2023-04-26T10:25:19;34.97;;;4.97;;
58685;SDS011;44465;53.206;-6.106;2023-04-26T10:27:46;34.17;;;4.63;;
58685;SDS011;44465;53.206;-6.106;2023-04-26T10:30:15;27.33;;;4.72;;
58685;SDS011;44465;53.206;-6.106;2023-04-26T10:33:24;28.10;;;4.32;;
58685;SDS011;44465;53.206;-6.106;2023-04-26T10:35:31;43.45;;;5.68;;
58685;SDS011;44465;53.206;-6.106;2023-04-26T10:40:26;26.77;;;5.43;;
58685;SDS011;44465;53.206;-6.106;2023-04-26T10:45:41;29.70;;;5.45;;
58685;SDS011;44465;53.206;-6.106;2023-04-26T10:48:18;37.97;;;5.85;;
58685;SDS011;44465;53.206;-6.106;2023-04-26T10:53:24;42.85;;;6.50;;
58685;SDS011;44465;53.206;-6.106;2023-04-26T10:55:50;27.88;;;5.28;;
58685;SDS011;44465;53.206;-6.106;2023-04-26T10:58:32;73.20;;;8.15;;
58685;SDS011;44465;53.206;-6.106;2023-04-26T11:03:31;38.90;;;5.60;;
58685;SDS011;44465;53.206;-6.106;2023-04-26T11:05:57;18.52;;;3.92;;
58685;SDS011;44465;53.206;-6.106;2023-04-26T11:08:23;12.98;;;3.35;;
58685;SDS011;44465;53.206;-6.106;2023-04-26T11:10:50;12.82;;;3.22;;
58685;SDS011;44465;53.206;-6.106;2023-04-26T11:13:22;23.65;;;3.53;;
58685;SDS011;44465;53.206;-6.106;2023-04-26T11:15:51;19.70;;;4.55;;
58685;SDS011;44465;53.206;-6.106;2023-04-26T11:18:24;33.40;;;6.50;;
58685;SDS011;44465;53.206;-6.106;2023-04-26T11:20:49;20.50;;;3.85;;
58685;SDS011;44465;53.206;-6.106;2023-04-26T11:23:16;20.73;;;4.60;;
58685;SDS011;44465;53.206;-6.106;2023-04-26T11:25:43;40.92;;;6.13;;
58685;SDS011;44465;53.206;-6.106;2023-04-26T11:28:09;47.30;;;6.78;;
58685;SDS011;44465;53.206;-6.106;2023-04-26T11:30:34;59.75;;;7.85;;
58685;SDS011;44465;53.206;-6.106;2023-04-26T11:33:00;21.27;;;3.70;;
58685;SDS011;44465;53.206;-6.106;2023-04-26T11:35:28;24.88;;;3.67;;
58685;SDS011;44465;53.206;-6.106;2023-04-26T11:37:57;21.20;;;4.70;;
58685;SDS011;44465;53.206;-6.106;2023-04-26T11:40:29;13.02;;;3.33;;
58685;SDS011;44465;53.206;-6.106;2023-04-26T11:43:04;7.70;;;2.53;;
58685;SDS011;44465;53.206;-6.106;2023-04-26T11:45:31;9.68;;;3.05;;
58685;SDS011;44465;53.206;-6.106;2023-04-26T11:47:59;10.25;;;2.55;;
58685;SDS011;44465;53.206;-6.106;2023-04-26T11:50:26;7.00;;;2.13;;
58685;SDS011;44465;53.206;-6.106;2023-04-26T11:52:55;6.95;;;2.72;;
58685;SDS011;44465;53.206;-6.106;2023-04-26T11:55:26;8.63;;;2.05;;
58685;SDS011;44465;53.206;-6.106;2023-04-26T11:57:58;6.50;;;2.25;;
58685;SDS011;44465;53.206;-6.106;2023-04-26T12:00:24;8.60;;;2.63;;
58685;SDS011;44465;53.206;-6.106;2023-04-26T12:02:50;5.95;;;2.33;;
58685;SDS011;44465;53.206;-6.106;2023-04-26T12:05:27;6.65;;;2.17;;
58685;SDS011;44465;53.206;-6.106;2023-04-26T12:07:57;4.05;;;1.95;;
58685;SDS011;44465;53.206;-6.106;2023-04-26T12:10:24;8.77;;;2.47;;
58685;SDS011;44465;53.206;-6.106;2023-04-26T12:12:57;18.90;;;3.20;;
58685;SDS011;44465;53.206;-6.106;2023-04-26T12:15:32;20.65;;;3.90;;
58685;SDS011;44465;53.206;-6.106;2023-04-26T12:20:33;14.30;;;2.97;;
58685;SDS011;44465;53.206;-6.106;2023-04-26T12:23:00;23.88;;;3.50;;
58685;SDS011;44465;53.206;-6.106;2023-04-26T12:25:26;13.70;;;3.00;;
58685;SDS011;44465;53.206;-6.106;2023-04-26T12:27:52;28.25;;;4.60;;
58685;SDS011;44465;53.206;-6.106;2023-04-26T12:30:18;9.65;;;2.63;;
58685;SDS011;44465;53.206;-6.106;2023-04-26T12:32:43;19.38;;;3.78;;
58685;SDS011;44465;53.206;-6.106;2023-04-26T12:35:09;6.68;;;2.53;;
58685;SDS011;44465;53.206;-6.106;2023-04-26T12:37:34;11.73;;;3.15;;
58685;SDS011;44465;53.206;-6.106;2023-04-26T12:40:00;17.17;;;3.65;;
58685;SDS011;44465;53.206;-6.106;2023-04-26T12:42:25;9.10;;;2.63;;
58685;SDS011;44465;53.206;-6.106;2023-04-26T12:44:51;11.75;;;2.95;;
58685;SDS011;44465;53.206;-6.106;2023-04-26T12:47:16;28.77;;;4.22;;
58685;SDS011;44465;53.206;-6.106;2023-04-26T12:49:42;14.38;;;3.88;;
58685;SDS011;44465;53.206;-6.106;2023-04-26T12:52:08;14.10;;;4.03;;
58685;SDS011;44465;53.206;-6.106;2023-04-26T12:54:33;19.17;;;3.67;;
58685;SDS011;44465;53.206;-6.106;2023-04-26T12:56:59;13.55;;;3.70;;
58685;SDS011;44465;53.206;-6.106;2023-04-26T12:59:24;19.17;;;3.83;;
58685;SDS011;44465;53.206;-6.106;2023-04-26T13:01:50;15.20;;;3.53;;
58685;SDS011;44465;53.206;-6.106;2023-04-26T13:04:15;16.88;;;4.22;;
58685;SDS011;44465;53.206;-6.106;2023-04-26T13:06:41;8.02;;;3.00;;
58685;SDS011;44465;53.206;-6.106;2023-04-26T13:09:06;7.93;;;2.75;;
58685;SDS011;44465;53.206;-6.106;2023-04-26T13:11:32;9.32;;;3.75;;
58685;SDS011;44465;53.206;-6.106;2023-04-26T13:13:58;19.17;;;4.07;;
58685;SDS011;44465;53.206;-6.106;2023-04-26T13:16:24;11.85;;;4.30;;
58685;SDS011;44465;53.206;-6.106;2023-04-26T13:18:50;57.38;;;7.95;;
58685;SDS011;44465;53.206;-6.106;2023-04-26T13:21:15;10.63;;;3.75;;
58685;SDS011;44465;53.206;-6.106;2023-04-26T13:23:41;12.15;;;3.47;;
58685;SDS011;44465;53.206;-6.106;2023-04-26T13:26:06;20.33;;;4.03;;
58685;SDS011;44465;53.206;-6.106;2023-04-26T13:28:33;11.38;;;4.00;;
58685;SDS011;44465;53.206;-6.106;2023-04-26T13:31:00;44.38;;;6.35;;
58685;SDS011;44465;53.206;-6.106;2023-04-26T13:33:25;12.68;;;3.80;;
58685;SDS011;44465;53.206;-6.106;2023-04-26T13:35:51;15.18;;;3.92;;
58685;SDS011;44465;53.206;-6.106;2023-04-26T13:38:16;10.50;;;3.47;;
58685;SDS011;44465;53.206;-6.106;2023-04-26T13:40:42;10.05;;;3.85;;
58685;SDS011;44465;53.206;-6.106;2023-04-26T13:43:07;23.48;;;4.43;;
58685;SDS011;44465;53.206;-6.106;2023-04-26T13:45:33;11.30;;;4.28;;
58685;SDS011;44465;53.206;-6.106;2023-04-26T13:47:59;18.17;;;3.60;;
58685;SDS011;44465;53.206;-6.106;2023-04-26T13:50:24;17.15;;;4.40;;
58685;SDS011;44465;53.206;-6.106;2023-04-26T13:52:50;10.05;;;3.30;;
58685;SDS011;44465;53.206;-6.106;2023-04-26T13:55:17;12.20;;;3.50;;
58685;SDS011;44465;53.206;-6.106;2023-04-26T13:57:42;11.82;;;3.50;;
58685;SDS011;44465;53.206;-6.106;2023-04-26T14:00:08;36.53;;;5.32;;
58685;SDS011;44465;53.206;-6.106;2023-04-26T14:02:36;17.42;;;4.38;;
58685;SDS011;44465;53.206;-6.106;2023-04-26T14:05:02;31.65;;;4.93;;
58685;SDS011;44465;53.206;-6.106;2023-04-26T14:07:28;35.75;;;4.80;;
58685;SDS011;44465;53.206;-6.106;2023-04-26T14:09:54;36.22;;;6.47;;
58685;SDS011;44465;53.206;-6.106;2023-04-26T14:12:19;19.23;;;3.63;;
58685;SDS011;44465;53.206;-6.106;2023-04-26T14:14:45;35.63;;;5.45;;
58685;SDS011;44465;53.206;-6.106;2023-04-26T14:17:12;12.77;;;3.30;;
58685;SDS011;44465;53.206;-6.106;2023-04-26T14:19:37;19.13;;;3.60;;
58685;SDS011;44465;53.206;-6.106;2023-04-26T14:22:03;10.95;;;3.00;;
58685;SDS011;44465;53.206;-6.106;2023-04-26T14:24:28;11.77;;;2.90;;
58685;SDS011;44465;53.206;-6.106;2023-04-26T14:26:54;14.13;;;3.72;;
58685;SDS011;44465;53.206;-6.106;2023-04-26T14:29:19;12.02;;;3.90;;
58685;SDS011;44465;53.206;-6.106;2023-04-26T14:31:45;12.93;;;4.43;;
58685;SDS011;44465;53.206;-6.106;2023-04-26T14:34:11;18.15;;;4.93;;
58685;SDS011;44465;53.206;-6.106;2023-04-26T14:36:37;20.65;;;3.22;;
58685;SDS011;44465;53.206;-6.106;2023-04-26T14:39:03;14.30;;;5.75;;
58685;SDS011;44465;53.206;-6.106;2023-04-26T14:41:28;17.13;;;3.88;;
58685;SDS011;44465;53.206;-6.106;2023-04-26T14:43:53;17.20;;;4.00;;
58685;SDS011;44465;53.206;-6.106;2023-04-26T14:46:20;18.38;;;3.72;;
58685;SDS011;44465;53.206;-6.106;2023-04-26T14:48:45;16.75;;;3.58;;
58685;SDS011;44465;53.206;-6.106;2023-04-26T14:51:11;10.77;;;3.30;;
58685;SDS011;44465;53.206;-6.106;2023-04-26T14:53:37;9.27;;;3.20;;
58685;SDS011;44465;53.206;-6.106;2023-04-26T14:56:03;11.70;;;3.17;;
58685;SDS011;44465;53.206;-6.106;2023-04-26T14:58:31;25.45;;;4.63;;